createdAt,value
2022-08-29T00:00:36.272Z,85.25
2022-08-29T00:01:36.273Z,85.25
2022-08-29T00:02:36.325Z,85.25
2022-08-29T00:03:36.245Z,85.25
2022-08-29T00:04:36.278Z,85.46
2022-08-29T00:05:36.227Z,85.46
2022-08-29T00:06:36.213Z,85.46
2022-08-29T00:07:36.204Z,85.46
2022-08-29T00:08:36.205Z,85.46
2022-08-29T00:09:36.184Z,85.56
2022-08-29T00:10:36.185Z,85.90
2022-08-29T00:11:36.155Z,85.80
2022-08-29T00:12:37.145Z,85.80
2022-08-29T00:13:36.136Z,85.90
2022-08-29T00:14:36.136Z,86.00
2022-08-29T00:15:44.774Z,86.20
2022-08-29T00:16:37.149Z,86.20
2022-08-29T00:17:36.098Z,86.20
2022-08-29T00:18:36.104Z,86.30
2022-08-29T00:19:36.076Z,86.20
2022-08-29T00:20:36.069Z,86.20
2022-08-29T00:21:36.058Z,86.30
2022-08-29T00:22:36.047Z,86.30
2022-08-29T00:23:36.050Z,86.40
2022-08-29T00:24:36.019Z,86.54
2022-08-29T00:25:36.030Z,86.65
2022-08-29T00:26:36.009Z,86.74
2022-08-29T00:27:35.992Z,86.85
2022-08-29T00:28:35.978Z,86.85
2022-08-29T00:29:35.973Z,86.85
2022-08-29T00:30:35.962Z,86.65
2022-08-29T00:31:36.003Z,86.85
2022-08-29T00:32:35.940Z,87.15
2022-08-29T00:33:35.922Z,87.24
2022-08-29T00:34:35.919Z,87.45
2022-08-29T00:35:35.907Z,87.59
2022-08-29T00:36:35.891Z,87.69
2022-08-29T00:37:35.902Z,87.79
2022-08-29T00:38:35.873Z,87.59
2022-08-29T00:39:35.882Z,87.69
2022-08-29T00:40:35.905Z,87.69
2022-08-29T00:41:35.845Z,87.79
2022-08-29T00:42:35.825Z,87.89
2022-08-29T00:43:35.822Z,87.99
2022-08-29T00:44:35.829Z,87.99
2022-08-29T00:45:35.839Z,88.09
2022-08-29T00:46:35.801Z,88.09
2022-08-29T00:47:35.782Z,88.09
2022-08-29T00:48:35.764Z,87.99
2022-08-29T00:49:35.755Z,88.09
2022-08-29T00:50:35.745Z,88.09
2022-08-29T00:51:35.746Z,88.09
2022-08-29T00:52:35.736Z,88.09
2022-08-29T00:53:35.716Z,88.09
2022-08-29T00:54:35.697Z,87.99
2022-08-29T00:55:35.698Z,87.99
2022-08-29T00:56:35.698Z,87.99
2022-08-29T00:57:35.679Z,87.99
2022-08-29T00:58:35.657Z,87.89
2022-08-29T00:59:35.667Z,87.93
2022-08-29T01:00:35.635Z,87.93
2022-08-29T01:01:35.629Z,88.03
2022-08-29T01:02:39.867Z,88.13
2022-08-29T01:03:36.609Z,88.03
2022-08-29T01:04:36.599Z,87.93
2022-08-29T01:05:35.582Z,88.13
2022-08-29T01:06:35.579Z,88.13
2022-08-29T01:07:35.547Z,88.34
2022-08-29T01:08:35.544Z,88.43
2022-08-29T01:09:35.553Z,88.54
2022-08-29T01:10:35.529Z,88.64
2022-08-29T01:11:35.517Z,88.54
2022-08-29T01:12:35.508Z,88.43
2022-08-29T01:13:35.479Z,88.54
2022-08-29T01:14:38.357Z,88.54
2022-08-29T01:15:35.468Z,88.58
2022-08-29T01:16:35.513Z,88.78
2022-08-29T01:17:35.439Z,88.88
2022-08-29T01:18:35.441Z,88.98
2022-08-29T01:19:35.440Z,88.98
2022-08-29T01:20:35.418Z,88.98
2022-08-29T01:21:35.404Z,88.98
2022-08-29T01:22:35.410Z,88.98
2022-08-29T01:23:35.378Z,88.98
2022-08-29T01:24:35.374Z,88.98
2022-08-29T01:25:35.353Z,89.08
2022-08-29T01:26:35.361Z,88.98
2022-08-29T01:27:35.343Z,88.98
2022-08-29T01:28:35.329Z,89.08
2022-08-29T01:29:35.333Z,89.08
2022-08-29T01:30:35.300Z,89.23
2022-08-29T01:31:53.613Z,89.23
2022-08-29T01:32:36.292Z,89.12
2022-08-29T01:33:44.041Z,89.03
2022-08-29T01:34:35.271Z,89.12
2022-08-29T01:35:35.241Z,89.12
2022-08-29T01:36:35.268Z,89.03
2022-08-29T01:37:35.230Z,89.12
2022-08-29T01:38:35.232Z,89.32
2022-08-29T01:39:35.212Z,89.43
2022-08-29T01:40:35.262Z,89.43
2022-08-29T01:41:35.173Z,89.43
2022-08-29T01:42:36.723Z,89.43
2022-08-29T01:43:35.174Z,89.32
2022-08-29T01:44:35.172Z,89.23
2022-08-29T01:45:35.152Z,89.23
2022-08-29T01:46:35.163Z,89.32
2022-08-29T01:47:35.115Z,89.32
2022-08-29T01:48:35.105Z,89.32
2022-08-29T01:49:35.114Z,89.43
2022-08-29T01:50:36.076Z,89.53
2022-08-29T01:51:35.075Z,89.63
2022-08-29T01:52:35.059Z,89.73
2022-08-29T01:53:35.055Z,89.63
2022-08-29T01:54:35.057Z,89.83
2022-08-29T01:55:35.034Z,89.83
2022-08-29T01:56:35.044Z,89.73
2022-08-29T01:57:35.020Z,89.77
2022-08-29T01:58:35.007Z,89.67
2022-08-29T01:59:34.987Z,89.67
2022-08-29T02:00:34.979Z,89.77
2022-08-29T02:01:34.968Z,89.77
2022-08-29T02:02:35.007Z,89.67
2022-08-29T02:03:34.955Z,89.77
2022-08-29T02:04:34.928Z,89.87
2022-08-29T02:05:34.951Z,89.87
2022-08-29T02:06:34.920Z,89.87
2022-08-29T02:07:34.900Z,89.97
2022-08-29T02:08:34.890Z,90.17
2022-08-29T02:09:34.890Z,90.17
2022-08-29T02:10:34.881Z,90.17
2022-08-29T02:11:34.860Z,90.17
2022-08-29T02:12:34.859Z,90.17
2022-08-29T02:13:34.840Z,90.28
2022-08-29T02:14:34.821Z,90.28
2022-08-29T02:15:34.832Z,90.28
2022-08-29T02:16:34.867Z,90.37
2022-08-29T02:17:34.812Z,90.52
2022-08-29T02:18:34.773Z,90.62
2022-08-29T02:19:34.783Z,90.52
2022-08-29T02:20:34.772Z,90.42
2022-08-29T02:21:34.751Z,90.42
2022-08-29T02:22:34.743Z,90.42
2022-08-29T02:23:34.732Z,90.32
2022-08-29T02:24:34.726Z,90.32
2022-08-29T02:25:34.723Z,90.32
2022-08-29T02:26:34.695Z,90.42
2022-08-29T02:27:34.685Z,90.52
2022-08-29T02:28:34.674Z,90.52
2022-08-29T02:29:37.343Z,90.42
2022-08-29T02:30:34.665Z,90.32
2022-08-29T02:31:34.721Z,90.42
2022-08-29T02:32:34.625Z,90.32
2022-08-29T02:33:34.615Z,90.32
2022-08-29T02:34:34.616Z,90.42
2022-08-29T02:35:35.180Z,90.52
2022-08-29T02:36:34.587Z,90.62
2022-08-29T02:37:34.576Z,90.72
2022-08-29T02:38:34.561Z,90.72
2022-08-29T02:39:34.556Z,90.72
2022-08-29T02:40:34.576Z,90.82
2022-08-29T02:41:34.536Z,90.86
2022-08-29T02:42:34.532Z,90.86
2022-08-29T02:43:34.518Z,90.86
2022-08-29T02:44:34.500Z,90.77
2022-08-29T02:45:34.489Z,90.66
2022-08-29T02:46:34.550Z,90.56
2022-08-29T02:47:34.499Z,90.56
2022-08-29T02:48:34.456Z,90.66
2022-08-29T02:49:34.631Z,90.66
2022-08-29T02:50:34.439Z,90.77
2022-08-29T02:51:34.445Z,90.86
2022-08-29T02:52:37.331Z,90.97
2022-08-29T02:53:34.411Z,91.06
2022-08-29T02:54:34.400Z,91.06
2022-08-29T02:55:34.381Z,91.06
2022-08-29T02:56:34.399Z,91.06
2022-08-29T02:57:34.377Z,91.17
2022-08-29T02:58:34.353Z,91.06
2022-08-29T02:59:34.341Z,91.06
2022-08-29T03:00:34.400Z,91.06
2022-08-29T03:01:34.366Z,90.97
2022-08-29T03:02:34.312Z,91.06
2022-08-29T03:03:34.303Z,91.06
2022-08-29T03:04:34.282Z,91.06
2022-08-29T03:05:34.273Z,91.17
2022-08-29T03:06:34.281Z,91.17
2022-08-29T03:07:34.258Z,91.17
2022-08-29T03:08:34.234Z,91.21
2022-08-29T03:09:34.234Z,91.21
2022-08-29T03:10:34.214Z,91.21
2022-08-29T03:11:34.212Z,91.21
2022-08-29T03:12:34.225Z,91.21
2022-08-29T03:13:34.186Z,91.41
2022-08-29T03:14:34.178Z,91.51
2022-08-29T03:15:34.166Z,91.61
2022-08-29T03:16:34.220Z,91.61
2022-08-29T03:17:34.146Z,91.61
2022-08-29T03:18:34.146Z,91.71
2022-08-29T03:19:37.370Z,91.71
2022-08-29T03:20:34.106Z,91.71
2022-08-29T03:21:34.120Z,91.61
2022-08-29T03:22:34.108Z,91.41
2022-08-29T03:23:34.079Z,91.51
2022-08-29T03:24:34.069Z,91.61
2022-08-29T03:25:34.058Z,91.61
2022-08-29T03:26:34.078Z,91.61
2022-08-29T03:27:34.069Z,91.71
2022-08-29T03:28:34.039Z,91.71
2022-08-29T03:29:34.039Z,91.71
2022-08-29T03:30:34.750Z,91.82
2022-08-29T03:31:34.082Z,91.86
2022-08-29T03:32:34.042Z,91.86
2022-08-29T03:33:34.362Z,91.96
2022-08-29T03:34:33.970Z,91.86
2022-08-29T03:35:34.957Z,91.66
2022-08-29T03:36:33.970Z,91.76
2022-08-29T03:37:34.025Z,91.86
2022-08-29T03:38:33.931Z,91.96
2022-08-29T03:39:33.935Z,91.96
2022-08-29T03:40:34.084Z,91.96
2022-08-29T03:41:33.912Z,91.96
2022-08-29T03:42:33.902Z,92.06
2022-08-29T03:43:33.903Z,92.06
2022-08-29T03:44:33.963Z,92.06
2022-08-29T03:45:33.889Z,91.96
2022-08-29T03:46:33.966Z,91.86
2022-08-29T03:47:33.882Z,91.86
2022-08-29T03:48:33.957Z,91.76
2022-08-29T03:49:33.854Z,91.66
2022-08-29T03:50:33.794Z,91.55
2022-08-29T03:51:33.816Z,91.46
2022-08-29T03:52:33.779Z,91.55
2022-08-29T03:53:33.802Z,91.55
2022-08-29T03:54:33.747Z,91.55
2022-08-29T03:55:33.747Z,91.50
2022-08-29T03:56:33.734Z,91.50
2022-08-29T03:57:33.717Z,91.60
2022-08-29T03:58:33.733Z,91.60
2022-08-29T03:59:33.707Z,91.70
2022-08-29T04:00:33.733Z,91.70
2022-08-29T04:01:33.819Z,91.70
2022-08-29T04:02:42.537Z,91.60
2022-08-29T04:03:41.215Z,91.50
2022-08-29T04:04:41.212Z,91.60
2022-08-29T04:05:34.684Z,91.60
2022-08-29T04:06:33.623Z,91.60
2022-08-29T04:07:34.311Z,91.39
2022-08-29T04:08:33.631Z,91.50
2022-08-29T04:09:34.303Z,91.39
2022-08-29T04:10:33.633Z,91.50
2022-08-29T04:11:34.283Z,91.50
2022-08-29T04:12:33.693Z,91.50
2022-08-29T04:13:34.329Z,91.50
2022-08-29T04:14:33.614Z,91.50
2022-08-29T04:15:34.615Z,91.50
2022-08-29T04:16:33.571Z,91.60
2022-08-29T04:17:34.203Z,91.70
2022-08-29T04:18:33.586Z,91.60
2022-08-29T04:19:33.543Z,91.60
2022-08-29T04:20:33.515Z,91.60
2022-08-29T04:21:33.546Z,91.80
2022-08-29T04:22:33.457Z,91.80
2022-08-29T04:23:33.444Z,91.90
2022-08-29T04:24:33.422Z,91.80
2022-08-29T04:25:36.833Z,91.70
2022-08-29T04:26:37.642Z,91.60
2022-08-29T04:27:33.407Z,91.50
2022-08-29T04:28:33.427Z,91.50
2022-08-29T04:29:33.436Z,91.50
2022-08-29T04:30:33.356Z,91.60
2022-08-29T04:31:33.425Z,91.70
2022-08-29T04:32:33.360Z,91.80
2022-08-29T04:33:33.358Z,91.80
2022-08-29T04:34:33.376Z,91.70
2022-08-29T04:35:33.315Z,91.70
2022-08-29T04:36:33.368Z,91.80
2022-08-29T04:37:33.290Z,91.85
2022-08-29T04:38:33.320Z,91.80
2022-08-29T04:39:33.261Z,91.85
2022-08-29T04:40:33.329Z,91.85
2022-08-29T04:41:33.457Z,91.94
2022-08-29T04:42:33.269Z,91.85
2022-08-29T04:43:33.301Z,91.85
2022-08-29T04:44:33.201Z,91.85
2022-08-29T04:45:33.192Z,91.94
2022-08-29T04:46:33.245Z,92.05
2022-08-29T04:47:33.206Z,92.05
2022-08-29T04:48:33.222Z,92.05
2022-08-29T04:49:33.174Z,92.05
2022-08-29T04:50:33.160Z,91.85
2022-08-29T04:51:33.158Z,91.85
2022-08-29T04:52:33.136Z,91.74
2022-08-29T04:53:33.119Z,91.74
2022-08-29T04:54:33.099Z,91.74
2022-08-29T04:55:33.134Z,91.85
2022-08-29T04:56:33.124Z,91.74
2022-08-29T04:57:33.103Z,91.74
2022-08-29T04:58:33.099Z,91.54
2022-08-29T04:59:33.044Z,91.54
2022-08-29T05:00:33.033Z,91.54
2022-08-29T05:01:33.088Z,91.64
2022-08-29T05:02:33.051Z,91.64
2022-08-29T05:03:33.028Z,91.54
2022-08-29T05:04:33.027Z,91.64
2022-08-29T05:05:33.042Z,91.64
2022-08-29T05:06:32.966Z,91.64
2022-08-29T05:07:32.976Z,91.64
2022-08-29T05:08:32.946Z,91.44
2022-08-29T05:09:32.967Z,91.34
2022-08-29T05:10:32.918Z,91.34
2022-08-29T05:11:32.917Z,91.34
2022-08-29T05:12:32.906Z,91.44
2022-08-29T05:13:32.909Z,91.44
2022-08-29T05:14:32.925Z,91.54
2022-08-29T05:15:32.953Z,91.54
2022-08-29T05:16:32.878Z,91.54
2022-08-29T05:17:32.857Z,91.44
2022-08-29T05:18:32.888Z,91.34
2022-08-29T05:19:34.246Z,91.24
2022-08-29T05:20:32.832Z,91.24
2022-08-29T05:21:35.077Z,91.24
2022-08-29T05:22:32.810Z,91.34
2022-08-29T05:23:32.793Z,91.34
2022-08-29T05:24:32.769Z,91.54
2022-08-29T05:25:32.780Z,91.34
2022-08-29T05:26:32.779Z,91.44
2022-08-29T05:27:32.769Z,91.44
2022-08-29T05:28:32.740Z,91.34
2022-08-29T05:29:32.720Z,91.54
2022-08-29T05:30:35.275Z,91.64
2022-08-29T05:31:32.769Z,91.64
2022-08-29T05:32:32.682Z,91.74
2022-08-29T05:33:32.712Z,91.74
2022-08-29T05:34:35.056Z,91.70
2022-08-29T05:35:32.703Z,91.74
2022-08-29T05:36:32.712Z,91.74
2022-08-29T05:37:32.642Z,91.70
2022-08-29T05:38:32.634Z,91.60
2022-08-29T05:39:32.623Z,91.39
2022-08-29T05:40:32.657Z,91.09
2022-08-29T05:41:32.625Z,91.09
2022-08-29T05:42:33.663Z,91.19
2022-08-29T05:43:32.623Z,91.19
2022-08-29T05:44:35.212Z,91.09
2022-08-29T05:45:32.548Z,91.09
2022-08-29T05:46:32.616Z,91.09
2022-08-29T05:47:32.552Z,91.09
2022-08-29T05:48:32.535Z,91.09
2022-08-29T05:49:32.505Z,90.99
2022-08-29T05:50:32.505Z,90.89
2022-08-29T05:51:36.079Z,90.79
2022-08-29T05:52:33.465Z,90.59
2022-08-29T05:53:32.504Z,90.49
2022-08-29T05:54:32.554Z,90.28
2022-08-29T05:55:32.454Z,90.19
2022-08-29T05:56:32.426Z,90.08
2022-08-29T05:57:32.428Z,89.88
2022-08-29T05:58:32.437Z,89.68
2022-08-29T05:59:32.429Z,89.78
2022-08-29T06:00:32.395Z,89.88
2022-08-29T06:01:32.976Z,89.88
2022-08-29T06:02:32.470Z,89.84
2022-08-29T06:03:32.479Z,89.84
2022-08-29T06:04:32.376Z,89.84
2022-08-29T06:05:32.337Z,89.74
2022-08-29T06:06:32.318Z,89.43
2022-08-29T06:07:32.368Z,89.23
2022-08-29T06:08:32.400Z,89.34
2022-08-29T06:09:32.280Z,89.34
2022-08-29T06:10:32.278Z,89.34
2022-08-29T06:11:32.367Z,89.34
2022-08-29T06:12:32.300Z,89.23
2022-08-29T06:13:32.280Z,89.34
2022-08-29T06:14:32.238Z,89.34
2022-08-29T06:15:32.258Z,88.93
2022-08-29T06:16:32.221Z,88.63
2022-08-29T06:17:32.191Z,88.73
2022-08-29T06:18:35.476Z,88.73
2022-08-29T06:19:32.193Z,88.73
2022-08-29T06:20:32.183Z,88.59
2022-08-29T06:21:32.175Z,88.28
2022-08-29T06:22:32.152Z,87.48
2022-08-29T06:23:32.132Z,87.38
2022-08-29T06:24:32.133Z,87.38
2022-08-29T06:25:40.324Z,87.27
2022-08-29T06:26:33.202Z,87.27
2022-08-29T06:27:32.144Z,87.27
2022-08-29T06:28:32.115Z,86.97
2022-08-29T06:29:32.078Z,87.07
2022-08-29T06:30:32.062Z,87.18
2022-08-29T06:31:32.113Z,87.18
2022-08-29T06:32:32.042Z,87.18
2022-08-29T06:33:32.032Z,87.07
2022-08-29T06:34:32.024Z,87.13
2022-08-29T06:35:32.049Z,86.93
2022-08-29T06:36:32.121Z,87.03
2022-08-29T06:37:32.095Z,87.13
2022-08-29T06:38:31.983Z,87.13
2022-08-29T06:39:32.023Z,86.93
2022-08-29T06:40:32.046Z,86.93
2022-08-29T06:41:31.937Z,87.03
2022-08-29T06:42:31.937Z,87.13
2022-08-29T06:43:31.916Z,86.93
2022-08-29T06:44:31.915Z,87.03
2022-08-29T06:45:31.904Z,86.73
2022-08-29T06:46:32.024Z,86.73
2022-08-29T06:47:31.878Z,86.83
2022-08-29T06:48:31.888Z,86.69
2022-08-29T06:49:31.868Z,86.58
2022-08-29T06:50:31.839Z,86.69
2022-08-29T06:51:31.858Z,86.69
2022-08-29T06:52:31.828Z,86.49
2022-08-29T06:53:32.809Z,86.29
2022-08-29T06:54:31.853Z,85.98
2022-08-29T06:55:31.810Z,85.98
2022-08-29T06:56:32.081Z,86.08
2022-08-29T06:57:31.761Z,86.18
2022-08-29T06:58:31.812Z,85.88
2022-08-29T06:59:31.852Z,85.78
2022-08-29T07:00:31.741Z,85.68
2022-08-29T07:01:31.878Z,85.64
2022-08-29T07:02:31.776Z,85.54
2022-08-29T07:03:31.699Z,85.54
2022-08-29T07:04:31.691Z,85.64
2022-08-29T07:05:31.702Z,85.44
2022-08-29T07:06:31.671Z,85.03
2022-08-29T07:07:31.663Z,84.83
2022-08-29T07:08:31.643Z,85.03
2022-08-29T07:09:31.728Z,85.03
2022-08-29T07:10:31.751Z,85.24
2022-08-29T07:11:31.612Z,85.44
2022-08-29T07:12:31.604Z,85.54
2022-08-29T07:13:31.611Z,85.54
2022-08-29T07:14:31.624Z,85.50
2022-08-29T07:15:31.582Z,85.50
2022-08-29T07:16:31.565Z,85.40
2022-08-29T07:17:31.564Z,85.50
2022-08-29T07:18:31.545Z,85.60
2022-08-29T07:19:31.556Z,85.30
2022-08-29T07:20:31.593Z,85.20
2022-08-29T07:21:31.639Z,85.10
2022-08-29T07:22:31.506Z,84.80
2022-08-29T07:23:31.507Z,84.80
2022-08-29T07:24:31.507Z,84.85
2022-08-29T07:25:31.467Z,84.75
2022-08-29T07:26:31.495Z,84.75
2022-08-29T07:27:31.495Z,84.75
2022-08-29T07:28:31.428Z,84.55
2022-08-29T07:29:31.436Z,84.75
2022-08-29T07:30:31.506Z,84.35
2022-08-29T07:31:31.549Z,84.25
2022-08-29T07:32:31.429Z,83.95
2022-08-29T07:33:31.369Z,84.05
2022-08-29T07:34:31.388Z,83.81
2022-08-29T07:35:31.386Z,83.81
2022-08-29T07:36:31.370Z,83.91
2022-08-29T07:37:31.359Z,84.01
2022-08-29T07:38:31.369Z,83.91
2022-08-29T07:39:31.361Z,84.01
2022-08-29T07:40:31.401Z,84.01
2022-08-29T07:41:31.294Z,84.21
2022-08-29T07:42:31.286Z,84.11
2022-08-29T07:43:31.572Z,84.01
2022-08-29T07:44:34.524Z,83.87
2022-08-29T07:45:31.321Z,83.97
2022-08-29T07:46:31.319Z,83.76
2022-08-29T07:47:31.222Z,83.76
2022-08-29T07:48:31.262Z,83.76
2022-08-29T07:49:40.692Z,83.47
2022-08-29T07:50:32.210Z,83.17
2022-08-29T07:51:31.234Z,83.17
2022-08-29T07:52:31.164Z,83.17
2022-08-29T07:53:31.173Z,82.92
2022-08-29T07:54:31.192Z,82.82
2022-08-29T07:55:31.134Z,82.82
2022-08-29T07:56:34.530Z,82.72
2022-08-29T07:57:32.154Z,82.72
2022-08-29T07:58:31.106Z,82.72
2022-08-29T07:59:31.094Z,82.82
2022-08-29T08:00:31.089Z,82.48
2022-08-29T08:01:31.114Z,82.08
2022-08-29T08:02:31.153Z,82.18
2022-08-29T08:03:31.076Z,82.18
2022-08-29T08:04:31.067Z,82.08
2022-08-29T08:05:31.034Z,81.98
2022-08-29T08:06:31.015Z,81.88
2022-08-29T08:07:31.068Z,82.18
2022-08-29T08:08:30.998Z,81.98
2022-08-29T08:09:30.977Z,81.94
2022-08-29T08:10:30.975Z,81.84
2022-08-29T08:11:30.949Z,81.94
2022-08-29T08:12:30.962Z,81.74
2022-08-29T08:13:30.948Z,81.64
2022-08-29T08:14:34.942Z,81.94
2022-08-29T08:15:30.928Z,81.90
2022-08-29T08:16:31.074Z,82.10
2022-08-29T08:17:30.922Z,81.70
2022-08-29T08:18:30.938Z,81.70
2022-08-29T08:19:30.878Z,81.50
2022-08-29T08:20:30.882Z,81.30
2022-08-29T08:21:30.882Z,80.90
2022-08-29T08:22:30.876Z,80.26
2022-08-29T08:23:30.831Z,80.16
2022-08-29T08:24:30.904Z,79.75
2022-08-29T08:25:30.823Z,80.06
2022-08-29T08:26:30.802Z,80.26
2022-08-29T08:27:30.882Z,79.86
2022-08-29T08:28:30.806Z,79.75
2022-08-29T08:29:30.783Z,79.75
2022-08-29T08:30:35.427Z,79.22
2022-08-29T08:31:31.838Z,79.52
2022-08-29T08:32:32.838Z,79.72
2022-08-29T08:33:34.606Z,79.62
2022-08-29T08:34:30.723Z,79.32
2022-08-29T08:35:30.809Z,79.52
2022-08-29T08:36:30.743Z,79.42
2022-08-29T08:37:30.683Z,79.32
2022-08-29T08:38:30.673Z,79.28
2022-08-29T08:39:30.663Z,78.98
2022-08-29T08:40:30.698Z,78.38
2022-08-29T08:41:30.647Z,78.18
2022-08-29T08:42:30.636Z,78.28
2022-08-29T08:43:30.646Z,78.04
2022-08-29T08:44:30.626Z,78.24
2022-08-29T08:45:30.690Z,78.34
2022-08-29T08:46:30.632Z,78.54
2022-08-29T08:47:30.597Z,78.44
2022-08-29T08:48:30.578Z,78.20
2022-08-29T08:49:30.628Z,78.20
2022-08-29T08:50:30.586Z,78.00
2022-08-29T08:51:30.528Z,77.60
2022-08-29T08:52:30.599Z,77.50
2022-08-29T08:53:30.529Z,77.20
2022-08-29T08:54:30.500Z,77.40
2022-08-29T08:55:30.509Z,77.76
2022-08-29T08:56:30.550Z,77.76
2022-08-29T08:57:30.464Z,77.67
2022-08-29T08:58:30.486Z,77.36
2022-08-29T08:59:30.464Z,77.26
2022-08-29T09:00:30.451Z,77.23
2022-08-29T09:01:30.483Z,77.13
2022-08-29T09:02:30.561Z,77.13
2022-08-29T09:03:30.393Z,77.23
2022-08-29T09:04:30.392Z,77.13
2022-08-29T09:05:30.423Z,77.03
2022-08-29T09:06:30.384Z,76.83
2022-08-29T09:07:30.378Z,76.69
2022-08-29T09:08:30.351Z,76.79
2022-08-29T09:09:30.337Z,76.89
2022-08-29T09:10:30.334Z,76.79
2022-08-29T09:11:30.407Z,76.69
2022-08-29T09:12:30.302Z,76.06
2022-08-29T09:13:30.315Z,75.65
2022-08-29T09:14:30.291Z,75.65
2022-08-29T09:15:32.820Z,75.65
2022-08-29T09:16:30.308Z,75.35
2022-08-29T09:17:30.334Z,74.96
2022-08-29T09:18:31.470Z,74.72
2022-08-29T09:19:30.229Z,74.32
2022-08-29T09:20:30.218Z,74.62
2022-08-29T09:21:41.007Z,74.52
2022-08-29T09:22:32.929Z,74.62
2022-08-29T09:23:30.179Z,74.62
2022-08-29T09:24:30.176Z,74.29
2022-08-29T09:25:30.187Z,73.88
2022-08-29T09:26:30.150Z,73.28
2022-08-29T09:27:30.173Z,73.19
2022-08-29T09:28:31.299Z,73.45
2022-08-29T09:29:30.199Z,73.35
2022-08-29T09:30:30.115Z,72.95
2022-08-29T09:31:30.150Z,72.55
2022-08-29T09:32:30.088Z,71.92
2022-08-29T09:33:30.071Z,71.82
2022-08-29T09:34:44.970Z,71.22
2022-08-29T09:35:31.078Z,70.89
2022-08-29T09:36:30.071Z,70.89
2022-08-29T09:37:30.032Z,71.48
2022-08-29T09:38:30.052Z,71.69
2022-08-29T09:39:30.002Z,71.75
2022-08-29T09:40:30.093Z,71.45
2022-08-29T09:41:30.869Z,70.45
2022-08-29T09:42:30.003Z,70.56
2022-08-29T09:43:29.964Z,70.86
2022-08-29T09:44:29.993Z,70.62
2022-08-29T09:45:30.044Z,70.52
2022-08-29T09:46:29.936Z,70.42
2022-08-29T09:47:30.008Z,70.22
2022-08-29T09:48:34.678Z,69.92
2022-08-29T09:49:30.931Z,69.82
2022-08-29T09:50:29.911Z,69.59
2022-08-29T09:51:29.880Z,69.20
2022-08-29T09:52:29.885Z,69.39
2022-08-29T09:53:30.316Z,69.49
2022-08-29T09:54:29.944Z,68.90
2022-08-29T09:55:29.857Z,68.70
2022-08-29T09:56:29.848Z,68.76
2022-08-29T09:57:29.809Z,68.07
2022-08-29T09:58:29.918Z,68.07
2022-08-29T09:59:29.858Z,67.97
2022-08-29T10:00:29.787Z,68.16
2022-08-29T10:01:29.866Z,68.13
2022-08-29T10:02:29.830Z,68.33
2022-08-29T10:03:29.770Z,67.93
2022-08-29T10:04:29.750Z,67.33
2022-08-29T10:05:29.731Z,67.74
2022-08-29T10:06:29.730Z,67.74
2022-08-29T10:07:29.701Z,67.40
2022-08-29T10:08:29.750Z,67.40
2022-08-29T10:09:29.709Z,67.50
2022-08-29T10:10:29.723Z,66.81
2022-08-29T10:11:29.684Z,66.38
2022-08-29T10:12:29.654Z,66.48
2022-08-29T10:13:30.254Z,65.98
2022-08-29T10:14:29.653Z,65.58
2022-08-29T10:15:49.371Z,65.06
2022-08-29T10:16:30.647Z,64.95
2022-08-29T10:17:29.704Z,63.07
2022-08-29T10:18:29.585Z,63.67
2022-08-29T10:19:33.241Z,64.06
2022-08-29T10:20:30.565Z,64.36
2022-08-29T10:21:29.558Z,64.36
2022-08-29T10:22:29.571Z,64.83
2022-08-29T10:23:29.587Z,63.43
2022-08-29T10:24:29.537Z,63.24
2022-08-29T10:25:29.516Z,63.34
2022-08-29T10:26:29.518Z,63.64
2022-08-29T10:27:29.517Z,63.64
2022-08-29T10:28:29.505Z,63.70
2022-08-29T10:29:31.705Z,63.40
2022-08-29T10:30:29.528Z,62.91
2022-08-29T10:31:29.516Z,62.21
2022-08-29T10:32:29.458Z,62.31
2022-08-29T10:33:29.432Z,62.08
2022-08-29T10:34:29.419Z,61.59
2022-08-29T10:35:29.420Z,61.10
2022-08-29T10:36:29.419Z,61.36
2022-08-29T10:37:29.423Z,60.86
2022-08-29T10:38:29.378Z,60.96
2022-08-29T10:39:29.402Z,60.77
2022-08-29T10:40:29.401Z,60.83
2022-08-29T10:41:29.429Z,60.83
2022-08-29T10:42:29.370Z,60.74
2022-08-29T10:43:29.330Z,60.54
2022-08-29T10:44:29.306Z,59.62
2022-08-29T10:45:29.365Z,59.32
2022-08-29T10:46:29.736Z,59.72
2022-08-29T10:47:29.332Z,58.63
2022-08-29T10:48:29.293Z,58.83
2022-08-29T10:49:29.263Z,59.00
2022-08-29T10:50:45.656Z,58.80
2022-08-29T10:51:30.246Z,58.80
2022-08-29T10:52:29.266Z,58.40
2022-08-29T10:53:29.247Z,58.20
2022-08-29T10:54:29.196Z,56.49
2022-08-29T10:55:29.217Z,56.40
2022-08-29T10:56:29.180Z,56.89
2022-08-29T10:57:29.191Z,57.29
2022-08-29T10:58:29.201Z,57.29
2022-08-29T10:59:29.179Z,57.09
2022-08-29T11:00:29.142Z,57.56
2022-08-29T11:01:29.249Z,56.67
2022-08-29T11:02:29.179Z,56.57
2022-08-29T11:03:29.129Z,56.76
2022-08-29T11:04:29.220Z,56.67
2022-08-29T11:05:29.091Z,56.54
2022-08-29T11:06:29.115Z,56.34
2022-08-29T11:07:29.103Z,56.44
2022-08-29T11:08:29.078Z,55.75
2022-08-29T11:09:29.054Z,55.55
2022-08-29T11:10:29.032Z,54.76
2022-08-29T11:11:29.029Z,54.76
2022-08-29T11:12:29.063Z,54.76
2022-08-29T11:13:29.100Z,54.17
2022-08-29T11:14:28.984Z,54.36
2022-08-29T11:15:29.034Z,54.27
2022-08-29T11:16:29.022Z,54.56
2022-08-29T11:17:28.975Z,55.05
2022-08-29T11:18:28.974Z,55.45
2022-08-29T11:19:28.952Z,55.52
2022-08-29T11:20:28.932Z,55.62
2022-08-29T11:21:28.936Z,54.80
2022-08-29T11:22:28.896Z,54.61
2022-08-29T11:23:28.900Z,54.28
2022-08-29T11:24:34.194Z,53.99
2022-08-29T11:25:29.881Z,53.10
2022-08-29T11:26:28.857Z,52.51
2022-08-29T11:27:28.876Z,53.39
2022-08-29T11:28:28.840Z,53.17
2022-08-29T11:29:28.838Z,53.47
2022-08-29T11:30:28.829Z,52.87
2022-08-29T11:31:28.863Z,52.58
2022-08-29T11:32:28.808Z,52.98
2022-08-29T11:33:28.824Z,52.48
2022-08-29T11:34:28.791Z,52.78
2022-08-29T11:35:28.791Z,52.39
2022-08-29T11:36:28.781Z,51.99
2022-08-29T11:37:28.772Z,51.79
2022-08-29T11:38:28.742Z,51.50
2022-08-29T11:39:28.723Z,51.47
2022-08-29T11:41:30.290Z,50.59
2022-08-29T11:43:29.683Z,50.38
2022-08-29T11:44:28.694Z,50.38
2022-08-29T11:45:35.709Z,50.88
2022-08-29T11:46:29.685Z,51.45
2022-08-29T11:47:28.675Z,51.05
2022-08-29T11:48:28.625Z,50.95
2022-08-29T11:49:28.626Z,50.07
2022-08-29T11:50:28.887Z,49.67
2022-08-29T11:51:28.635Z,50.07
2022-08-29T11:52:28.668Z,50.85
2022-08-29T11:53:28.589Z,51.45
2022-08-29T11:54:28.599Z,50.93
2022-08-29T11:55:28.621Z,49.95
2022-08-29T11:56:28.692Z,49.23
2022-08-29T11:57:28.540Z,49.13
2022-08-29T11:58:28.543Z,50.42
2022-08-29T11:59:28.520Z,50.09
2022-08-29T12:00:28.606Z,49.50
2022-08-29T12:01:28.524Z,49.28
2022-08-29T12:02:28.522Z,48.99
2022-08-29T12:03:28.972Z,48.96
2022-08-29T12:04:28.522Z,48.47
2022-08-29T12:05:28.535Z,48.25
2022-08-29T12:06:28.597Z,48.25
2022-08-29T12:07:28.434Z,47.83
2022-08-29T12:08:36.963Z,47.25
2022-08-29T12:09:29.421Z,47.34
2022-08-29T12:10:28.386Z,47.54
2022-08-29T12:11:28.455Z,47.42
2022-08-29T12:12:28.478Z,47.22
2022-08-29T12:13:28.407Z,46.71
2022-08-29T12:14:28.396Z,46.10
2022-08-29T12:15:28.404Z,45.09
2022-08-29T12:16:28.630Z,44.68
2022-08-29T12:17:44.894Z,44.24
2022-08-29T12:18:32.378Z,43.42
2022-08-29T12:19:29.299Z,42.68
2022-08-29T12:20:28.286Z,41.25
2022-08-29T12:21:28.347Z,39.62
2022-08-29T12:22:28.270Z,38.31
2022-08-29T12:23:28.261Z,37.26
2022-08-29T12:24:28.263Z,36.41
2022-08-29T12:25:28.253Z,34.50
2022-08-29T12:26:28.294Z,33.31
2022-08-29T12:27:28.242Z,33.07
2022-08-29T12:28:28.223Z,31.67
2022-08-29T12:29:28.202Z,31.18
2022-08-29T12:30:28.237Z,30.65
2022-08-29T12:31:28.321Z,31.40
2022-08-29T12:32:31.530Z,32.92
2022-08-29T12:33:28.177Z,34.84
2022-08-29T12:34:28.157Z,35.19
2022-08-29T12:35:28.150Z,33.50
2022-08-29T12:36:28.206Z,32.82
2022-08-29T12:37:28.128Z,33.36
2022-08-29T12:38:28.188Z,33.52
2022-08-29T12:39:28.126Z,31.09
2022-08-29T12:40:28.237Z,30.85
2022-08-29T12:41:28.091Z,29.23
2022-08-29T12:42:28.069Z,27.82
2022-08-29T12:43:28.091Z,27.01
2022-08-29T12:44:28.070Z,26.31
2022-08-29T12:45:28.048Z,25.60
2022-08-29T12:46:28.140Z,25.48
2022-08-29T12:47:28.091Z,24.88
2022-08-29T12:48:28.011Z,24.19
2022-08-29T12:49:28.041Z,24.48
2022-08-29T12:50:28.012Z,24.08
2022-08-29T12:51:28.043Z,23.71
2022-08-29T12:52:27.984Z,23.90
2022-08-29T12:53:27.985Z,24.01
2022-08-29T12:54:27.995Z,24.34